< < Back
Terminal Aerodrome Forecast


Current Version              Previous Versions:   1  2  3  4  5  6  7  8  9  

Terminal Aerodrome Forecast

435
FTUS42 KTAE 221100
TAFDHN
TAF
KDHN 221123Z 2212/2312 32003KT P6SM SKC
     FM221500 02009KT P6SM SKC=

Latest METAR

561
SAUS70 KWBC 231556
MTRDHN
METAR KDHN 231553Z 09006KT 10SM CLR 19/07 A3015 RMK AO2 SLP206
T01890067


USA.gov is the U.S. government's official web portal to all federal, state and local government web resources and services.